sensor_id;sensor_type;location;lat;lon;timestamp;pressure;altitude;pressure_sealevel;temperature;humidity
68994;BME280;56054;50.968;5.816;2022-11-23T00:02:37;98875.34;;;8.74;96.05
68994;BME280;56054;50.968;5.816;2022-11-23T00:05:44;98866.63;;;8.72;96.24
68994;BME280;56054;50.968;5.816;2022-11-23T00:08:51;98872.75;;;8.74;96.53
68994;BME280;56054;50.968;5.816;2022-11-23T00:11:59;98886.50;;;8.73;96.28
68994;BME280;56054;50.968;5.816;2022-11-23T00:15:06;98896.81;;;8.71;96.48
68994;BME280;56054;50.968;5.816;2022-11-23T00:18:14;98899.44;;;8.73;96.38
68994;BME280;56054;50.968;5.816;2022-11-23T00:21:21;98890.97;;;8.75;96.55
68994;BME280;56054;50.968;5.816;2022-11-23T00:24:29;98893.59;;;8.77;96.32
68994;BME280;56054;50.968;5.816;2022-11-23T00:27:40;98907.41;;;8.77;96.09
68994;BME280;56054;50.968;5.816;2022-11-23T00:30:48;98901.47;;;8.80;96.42
68994;BME280;56054;50.968;5.816;2022-11-23T00:33:56;98906.59;;;8.78;96.60
68994;BME280;56054;50.968;5.816;2022-11-23T00:37:04;98908.31;;;8.78;96.06
68994;BME280;56054;50.968;5.816;2022-11-23T00:40:11;98915.19;;;8.77;96.11
68994;BME280;56054;50.968;5.816;2022-11-23T00:43:19;98913.50;;;8.78;96.61
68994;BME280;56054;50.968;5.816;2022-11-23T00:46:27;98912.53;;;8.76;96.92
68994;BME280;56054;50.968;5.816;2022-11-23T00:49:40;98907.28;;;8.74;97.03
68994;BME280;56054;50.968;5.816;2022-11-23T00:52:51;98907.19;;;8.71;97.07
68994;BME280;56054;50.968;5.816;2022-11-23T00:55:58;98897.69;;;8.72;96.40
68994;BME280;56054;50.968;5.816;2022-11-23T00:59:05;98909.81;;;8.73;96.71
68994;BME280;56054;50.968;5.816;2022-11-23T01:02:12;98901.13;;;8.71;96.89
68994;BME280;56054;50.968;5.816;2022-11-23T01:05:19;98903.72;;;8.71;96.81
68994;BME280;56054;50.968;5.816;2022-11-23T01:08:26;98905.47;;;8.72;96.66
68994;BME280;56054;50.968;5.816;2022-11-23T01:11:33;98905.47;;;8.72;96.49
68994;BME280;56054;50.968;5.816;2022-11-23T01:14:40;98912.41;;;8.73;95.73
68994;BME280;56054;50.968;5.816;2022-11-23T01:17:47;98914.88;;;8.70;96.32
68994;BME280;56054;50.968;5.816;2022-11-23T01:20:54;98910.63;;;8.72;96.22
68994;BME280;56054;50.968;5.816;2022-11-23T01:24:07;98908.81;;;8.69;96.67
68994;BME280;56054;50.968;5.816;2022-11-23T01:27:15;98913.22;;;8.72;96.86
68994;BME280;56054;50.968;5.816;2022-11-23T01:30:24;98915.75;;;8.70;96.67
68994;BME280;56054;50.968;5.816;2022-11-23T01:33:31;98914.00;;;8.69;96.86
68994;BME280;56054;50.968;5.816;2022-11-23T01:36:38;98916.50;;;8.68;96.69
68994;BME280;56054;50.968;5.816;2022-11-23T01:39:45;98917.53;;;8.71;96.36
68994;BME280;56054;50.968;5.816;2022-11-23T01:42:58;98923.59;;;8.72;96.28
68994;BME280;56054;50.968;5.816;2022-11-23T01:46:08;98921.94;;;8.74;96.04
68994;BME280;56054;50.968;5.816;2022-11-23T01:49:15;98916.56;;;8.69;96.70
68994;BME280;56054;50.968;5.816;2022-11-23T01:52:24;98927.00;;;8.71;95.47
68994;BME280;56054;50.968;5.816;2022-11-23T01:55:32;98914.94;;;8.71;95.88
68994;BME280;56054;50.968;5.816;2022-11-23T01:58:42;98934.03;;;8.73;95.09
68994;BME280;56054;50.968;5.816;2022-11-23T02:01:53;98929.78;;;8.75;94.77
68994;BME280;56054;50.968;5.816;2022-11-23T02:05:01;98929.78;;;8.75;94.48
68994;BME280;56054;50.968;5.816;2022-11-23T02:08:16;98925.50;;;8.76;94.26
68994;BME280;56054;50.968;5.816;2022-11-23T02:11:25;98933.31;;;8.77;94.12
68994;BME280;56054;50.968;5.816;2022-11-23T02:14:32;98934.25;;;8.79;93.92
68994;BME280;56054;50.968;5.816;2022-11-23T02:17:42;98938.47;;;8.77;93.63
68994;BME280;56054;50.968;5.816;2022-11-23T02:20:49;98939.41;;;8.78;93.27
68994;BME280;56054;50.968;5.816;2022-11-23T02:24:24;98940.00;;;8.72;94.18
68994;BME280;56054;50.968;5.816;2022-11-23T02:27:34;98938.16;;;8.70;93.27
68994;BME280;56054;50.968;5.816;2022-11-23T02:30:43;98935.34;;;8.64;93.75
68994;BME280;56054;50.968;5.816;2022-11-23T02:33:51;98949.25;;;8.66;93.36
68994;BME280;56054;50.968;5.816;2022-11-23T02:36:58;98942.28;;;8.65;93.42
68994;BME280;56054;50.968;5.816;2022-11-23T02:40:14;98936.28;;;8.66;93.02
68994;BME280;56054;50.968;5.816;2022-11-23T02:43:25;98937.09;;;8.65;93.30
68994;BME280;56054;50.968;5.816;2022-11-23T02:46:32;98939.69;;;8.65;93.20
68994;BME280;56054;50.968;5.816;2022-11-23T02:49:41;98949.16;;;8.64;92.99
68994;BME280;56054;50.968;5.816;2022-11-23T02:52:48;98940.53;;;8.64;93.27
68994;BME280;56054;50.968;5.816;2022-11-23T02:55:55;98934.63;;;8.68;92.50
68994;BME280;56054;50.968;5.816;2022-11-23T02:59:02;98944.97;;;8.68;92.43
68994;BME280;56054;50.968;5.816;2022-11-23T03:02:09;98938.94;;;8.67;91.73
68994;BME280;56054;50.968;5.816;2022-11-23T03:05:16;98946.56;;;8.64;92.35
68994;BME280;56054;50.968;5.816;2022-11-23T03:08:32;98940.53;;;8.64;92.25
68994;BME280;56054;50.968;5.816;2022-11-23T03:11:39;98942.16;;;8.62;91.82
68994;BME280;56054;50.968;5.816;2022-11-23T03:14:47;98936.97;;;8.62;92.89
68994;BME280;56054;50.968;5.816;2022-11-23T03:17:55;98941.19;;;8.60;92.26
68994;BME280;56054;50.968;5.816;2022-11-23T03:21:05;98943.78;;;8.60;92.08
68994;BME280;56054;50.968;5.816;2022-11-23T03:24:12;98950.81;;;8.62;92.37
68994;BME280;56054;50.968;5.816;2022-11-23T03:27:20;98949.81;;;8.59;92.34
68994;BME280;56054;50.968;5.816;2022-11-23T03:30:28;98954.06;;;8.58;92.28
68994;BME280;56054;50.968;5.816;2022-11-23T03:33:38;98959.19;;;8.56;92.51
68994;BME280;56054;50.968;5.816;2022-11-23T03:36:45;98953.19;;;8.57;91.97
68994;BME280;56054;50.968;5.816;2022-11-23T03:39:53;98959.25;;;8.58;91.97
68994;BME280;56054;50.968;5.816;2022-11-23T03:43:20;98962.66;;;8.57;91.75
68994;BME280;56054;50.968;5.816;2022-11-23T03:46:27;98950.59;;;8.57;91.50
68994;BME280;56054;50.968;5.816;2022-11-23T03:49:34;98952.50;;;8.62;91.56
68994;BME280;56054;50.968;5.816;2022-11-23T03:52:43;98951.44;;;8.56;92.21
68994;BME280;56054;50.968;5.816;2022-11-23T03:55:50;98949.81;;;8.59;91.47
68994;BME280;56054;50.968;5.816;2022-11-23T03:58:59;98948.97;;;8.60;91.98
68994;BME280;56054;50.968;5.816;2022-11-23T04:02:06;98962.00;;;8.61;91.83
68994;BME280;56054;50.968;5.816;2022-11-23T04:05:21;98960.06;;;8.57;92.20
68994;BME280;56054;50.968;5.816;2022-11-23T04:08:54;98961.03;;;8.59;91.97
68994;BME280;56054;50.968;5.816;2022-11-23T04:12:34;98971.31;;;8.57;92.54
68994;BME280;56054;50.968;5.816;2022-11-23T04:15:41;98973.91;;;8.57;92.71
68994;BME280;56054;50.968;5.816;2022-11-23T04:18:48;98968.72;;;8.57;92.89
68994;BME280;56054;50.968;5.816;2022-11-23T04:21:56;98959.19;;;8.56;93.42
68994;BME280;56054;50.968;5.816;2022-11-23T04:25:09;98965.13;;;8.54;93.44
68994;BME280;56054;50.968;5.816;2022-11-23T04:28:16;98962.53;;;8.54;93.37
68994;BME280;56054;50.968;5.816;2022-11-23T04:31:23;98963.34;;;8.53;93.50
68994;BME280;56054;50.968;5.816;2022-11-23T04:34:46;98956.41;;;8.52;93.48
68994;BME280;56054;50.968;5.816;2022-11-23T04:37:53;98960.63;;;8.50;93.55
68994;BME280;56054;50.968;5.816;2022-11-23T04:41:03;98954.31;;;8.43;94.62
68994;BME280;56054;50.968;5.816;2022-11-23T04:44:15;98960.22;;;8.41;94.91
68994;BME280;56054;50.968;5.816;2022-11-23T04:47:26;98946.41;;;8.40;94.62
68994;BME280;56054;50.968;5.816;2022-11-23T04:50:37;98952.31;;;8.38;94.96
68994;BME280;56054;50.968;5.816;2022-11-23T04:53:45;98947.06;;;8.36;95.15
68994;BME280;56054;50.968;5.816;2022-11-23T04:56:53;98957.28;;;8.33;95.73
68994;BME280;56054;50.968;5.816;2022-11-23T05:00:00;98958.91;;;8.31;95.65
68994;BME280;56054;50.968;5.816;2022-11-23T05:03:10;98949.31;;;8.28;95.30
68994;BME280;56054;50.968;5.816;2022-11-23T05:06:17;98954.44;;;8.27;95.58
68994;BME280;56054;50.968;5.816;2022-11-23T05:09:24;98943.91;;;8.22;95.24
68994;BME280;56054;50.968;5.816;2022-11-23T05:12:36;98940.56;;;8.25;94.71
68994;BME280;56054;50.968;5.816;2022-11-23T05:15:44;98946.59;;;8.25;94.61
68994;BME280;56054;50.968;5.816;2022-11-23T05:18:57;98939.59;;;8.23;94.92
68994;BME280;56054;50.968;5.816;2022-11-23T05:22:04;98952.78;;;8.29;93.48
68994;BME280;56054;50.968;5.816;2022-11-23T05:25:14;98939.59;;;8.23;94.24
68994;BME280;56054;50.968;5.816;2022-11-23T05:28:28;98944.69;;;8.21;94.25
68994;BME280;56054;50.968;5.816;2022-11-23T05:31:35;98949.88;;;8.21;94.27
68994;BME280;56054;50.968;5.816;2022-11-23T05:34:43;98944.97;;;8.27;93.40
68994;BME280;56054;50.968;5.816;2022-11-23T05:37:51;98941.63;;;8.30;92.50
68994;BME280;56054;50.968;5.816;2022-11-23T05:40:59;98944.16;;;8.28;93.29
68994;BME280;56054;50.968;5.816;2022-11-23T05:44:07;98944.22;;;8.30;92.46
68994;BME280;56054;50.968;5.816;2022-11-23T05:47:14;98942.44;;;8.29;92.21
68994;BME280;56054;50.968;5.816;2022-11-23T05:50:23;98942.63;;;8.33;91.25
68994;BME280;56054;50.968;5.816;2022-11-23T05:53:50;98939.94;;;8.30;91.30
68994;BME280;56054;50.968;5.816;2022-11-23T05:57:06;98934.66;;;8.29;90.54
68994;BME280;56054;50.968;5.816;2022-11-23T06:00:15;98935.63;;;8.31;90.82
68994;BME280;56054;50.968;5.816;2022-11-23T06:03:31;98947.00;;;8.34;90.54
68994;BME280;56054;50.968;5.816;2022-11-23T06:06:38;98941.97;;;8.38;89.53
68994;BME280;56054;50.968;5.816;2022-11-23T06:09:52;98939.53;;;8.41;89.32
68994;BME280;56054;50.968;5.816;2022-11-23T06:13:03;98942.19;;;8.42;88.44
68994;BME280;56054;50.968;5.816;2022-11-23T06:16:10;98936.19;;;8.43;87.58
68994;BME280;56054;50.968;5.816;2022-11-23T06:19:34;98934.06;;;8.34;88.41
68994;BME280;56054;50.968;5.816;2022-11-23T06:22:41;98932.09;;;8.29;88.98
68994;BME280;56054;50.968;5.816;2022-11-23T06:25:48;98941.22;;;8.21;89.13
68994;BME280;56054;50.968;5.816;2022-11-23T06:28:58;98936.88;;;8.20;88.55
68994;BME280;56054;50.968;5.816;2022-11-23T06:32:09;98930.56;;;8.13;89.68
68994;BME280;56054;50.968;5.816;2022-11-23T06:35:16;98931.19;;;8.07;89.27
68994;BME280;56054;50.968;5.816;2022-11-23T06:38:24;98933.56;;;8.03;89.13
68994;BME280;56054;50.968;5.816;2022-11-23T06:41:38;98935.94;;;7.98;89.20
68994;BME280;56054;50.968;5.816;2022-11-23T06:44:46;98945.25;;;7.94;89.15
68994;BME280;56054;50.968;5.816;2022-11-23T06:47:55;98950.28;;;7.91;88.71
68994;BME280;56054;50.968;5.816;2022-11-23T06:51:03;98957.16;;;7.91;87.92
68994;BME280;56054;50.968;5.816;2022-11-23T06:54:11;98956.34;;;7.92;87.64
68994;BME280;56054;50.968;5.816;2022-11-23T06:57:18;98958.34;;;7.98;86.52
68994;BME280;56054;50.968;5.816;2022-11-23T07:00:26;98968.31;;;7.90;86.68
68994;BME280;56054;50.968;5.816;2022-11-23T07:03:36;98965.34;;;8.00;85.86
68994;BME280;56054;50.968;5.816;2022-11-23T07:06:54;98971.19;;;7.96;86.54
68994;BME280;56054;50.968;5.816;2022-11-23T07:10:11;98972.75;;;7.92;85.93
68994;BME280;56054;50.968;5.816;2022-11-23T07:13:23;98976.88;;;7.89;86.38
68994;BME280;56054;50.968;5.816;2022-11-23T07:16:30;98986.41;;;7.90;86.12
68994;BME280;56054;50.968;5.816;2022-11-23T07:19:37;98992.13;;;7.83;86.59
68994;BME280;56054;50.968;5.816;2022-11-23T07:22:45;99000.69;;;7.82;86.34
68994;BME280;56054;50.968;5.816;2022-11-23T07:25:52;98998.84;;;7.79;86.06
68994;BME280;56054;50.968;5.816;2022-11-23T07:28:59;99008.03;;;7.72;86.97
68994;BME280;56054;50.968;5.816;2022-11-23T07:32:07;99010.59;;;7.72;87.02
68994;BME280;56054;50.968;5.816;2022-11-23T07:35:16;99020.06;;;7.72;86.65
68994;BME280;56054;50.968;5.816;2022-11-23T07:38:23;99019.06;;;7.68;87.14
68994;BME280;56054;50.968;5.816;2022-11-23T07:41:36;99018.31;;;7.71;86.30
68994;BME280;56054;50.968;5.816;2022-11-23T07:44:51;99019.84;;;7.67;86.72
68994;BME280;56054;50.968;5.816;2022-11-23T07:48:04;99025.00;;;7.67;86.66
68994;BME280;56054;50.968;5.816;2022-11-23T07:51:12;99025.84;;;7.66;86.74
68994;BME280;56054;50.968;5.816;2022-11-23T07:54:20;99042.31;;;7.68;86.70
68994;BME280;56054;50.968;5.816;2022-11-23T07:57:30;99030.13;;;7.66;86.64
68994;BME280;56054;50.968;5.816;2022-11-23T08:00:37;99042.97;;;7.64;87.70
68994;BME280;56054;50.968;5.816;2022-11-23T08:03:46;99046.38;;;7.63;87.74
68994;BME280;56054;50.968;5.816;2022-11-23T08:06:55;99046.38;;;7.63;87.14
68994;BME280;56054;50.968;5.816;2022-11-23T08:10:05;99041.28;;;7.65;86.29
68994;BME280;56054;50.968;5.816;2022-11-23T08:13:12;99048.41;;;7.70;85.99
68994;BME280;56054;50.968;5.816;2022-11-23T08:16:20;99043.47;;;7.75;84.98
68994;BME280;56054;50.968;5.816;2022-11-23T08:19:27;99043.41;;;7.74;85.27
68994;BME280;56054;50.968;5.816;2022-11-23T08:22:34;99046.00;;;7.74;84.78
68994;BME280;56054;50.968;5.816;2022-11-23T08:25:41;99040.00;;;7.75;84.56
68994;BME280;56054;50.968;5.816;2022-11-23T08:28:50;99046.22;;;7.78;84.83
68994;BME280;56054;50.968;5.816;2022-11-23T08:31:57;99047.38;;;7.85;84.58
68994;BME280;56054;50.968;5.816;2022-11-23T08:35:05;99043.84;;;7.83;84.63
68994;BME280;56054;50.968;5.816;2022-11-23T08:38:12;99051.78;;;7.87;84.29
68994;BME280;56054;50.968;5.816;2022-11-23T08:41:20;99053.59;;;7.88;84.16
68994;BME280;56054;50.968;5.816;2022-11-23T08:44:30;99063.31;;;7.94;84.08
68994;BME280;56054;50.968;5.816;2022-11-23T08:47:37;99058.16;;;7.94;83.84
68994;BME280;56054;50.968;5.816;2022-11-23T08:51:16;99061.03;;;8.00;84.36
68994;BME280;56054;50.968;5.816;2022-11-23T08:54:25;99062.00;;;8.02;83.91
68994;BME280;56054;50.968;5.816;2022-11-23T08:57:32;99053.41;;;8.03;83.41
68994;BME280;56054;50.968;5.816;2022-11-23T09:00:39;99051.78;;;8.05;83.74
68994;BME280;56054;50.968;5.816;2022-11-23T09:03:46;99051.16;;;8.11;83.14
68994;BME280;56054;50.968;5.816;2022-11-23T09:06:53;99051.38;;;8.15;82.39
68994;BME280;56054;50.968;5.816;2022-11-23T09:10:00;99049.88;;;8.21;82.21
68994;BME280;56054;50.968;5.816;2022-11-23T09:13:11;99048.38;;;8.26;82.33
68994;BME280;56054;50.968;5.816;2022-11-23T09:16:18;99038.16;;;8.29;82.06
68994;BME280;56054;50.968;5.816;2022-11-23T09:19:25;99034.13;;;8.34;81.64
68994;BME280;56054;50.968;5.816;2022-11-23T09:22:32;99034.41;;;8.40;81.81
68994;BME280;56054;50.968;5.816;2022-11-23T09:25:40;99038.75;;;8.41;81.50
68994;BME280;56054;50.968;5.816;2022-11-23T09:28:47;99035.63;;;8.48;81.59
68994;BME280;56054;50.968;5.816;2022-11-23T09:31:55;99021.03;;;8.50;81.03
68994;BME280;56054;50.968;5.816;2022-11-23T09:35:03;99021.25;;;8.55;80.41
68994;BME280;56054;50.968;5.816;2022-11-23T09:38:11;99025.00;;;8.62;80.41
68994;BME280;56054;50.968;5.816;2022-11-23T09:51:55;99002.81;;;8.88;79.83
68994;BME280;56054;50.968;5.816;2022-11-23T09:55:14;99000.53;;;8.95;78.82
68994;BME280;56054;50.968;5.816;2022-11-23T09:58:35;99000.66;;;8.98;78.82
68994;BME280;56054;50.968;5.816;2022-11-23T10:02:01;98997.63;;;9.09;78.80
68994;BME280;56054;50.968;5.816;2022-11-23T10:05:25;98992.06;;;9.20;77.95
68994;BME280;56054;50.968;5.816;2022-11-23T10:16:48;98976.50;;;9.41;77.31
68994;BME280;56054;50.968;5.816;2022-11-23T10:23:54;98955.16;;;9.49;77.12
68994;BME280;56054;50.968;5.816;2022-11-23T10:27:13;98957.03;;;9.53;77.44
68994;BME280;56054;50.968;5.816;2022-11-23T10:30:25;98955.69;;;9.62;77.06
68994;BME280;56054;50.968;5.816;2022-11-23T10:33:53;98963.63;;;9.67;77.04
68994;BME280;56054;50.968;5.816;2022-11-23T10:37:01;98960.69;;;9.80;76.94
68994;BME280;56054;50.968;5.816;2022-11-23T10:40:23;98948.59;;;9.81;76.78
68994;BME280;56054;50.968;5.816;2022-11-23T10:47:04;98951.84;;;9.98;76.96
68994;BME280;56054;50.968;5.816;2022-11-23T10:53:43;98955.66;;;10.07;75.72
68994;BME280;56054;50.968;5.816;2022-11-23T10:56:51;98946.03;;;10.05;74.80
68994;BME280;56054;50.968;5.816;2022-11-23T11:00:20;98944.34;;;10.07;75.38
68994;BME280;56054;50.968;5.816;2022-11-23T11:03:34;98938.56;;;10.14;74.61
68994;BME280;56054;50.968;5.816;2022-11-23T11:06:51;98933.66;;;10.22;74.61
68994;BME280;56054;50.968;5.816;2022-11-23T11:10:05;98931.47;;;10.33;74.23
68994;BME280;56054;50.968;5.816;2022-11-23T11:13:22;98919.44;;;10.35;74.18
68994;BME280;56054;50.968;5.816;2022-11-23T11:16:32;98925.66;;;10.40;73.34
68994;BME280;56054;50.968;5.816;2022-11-23T11:19:48;98912.78;;;10.43;72.93
68994;BME280;56054;50.968;5.816;2022-11-23T11:22:57;98918.81;;;10.42;71.97
68994;BME280;56054;50.968;5.816;2022-11-23T11:26:32;98907.81;;;10.49;72.34
68994;BME280;56054;50.968;5.816;2022-11-23T11:33:14;98914.84;;;10.52;71.51
68994;BME280;56054;50.968;5.816;2022-11-23T11:36:27;98902.97;;;10.60;71.86
68994;BME280;56054;50.968;5.816;2022-11-23T11:39:49;98895.97;;;10.57;70.83
68994;BME280;56054;50.968;5.816;2022-11-23T11:43:31;98889.47;;;10.70;71.40
68994;BME280;56054;50.968;5.816;2022-11-23T11:46:53;98872.94;;;10.68;71.39
68994;BME280;56054;50.968;5.816;2022-11-23T11:54:17;98870.41;;;10.69;70.93
68994;BME280;56054;50.968;5.816;2022-11-23T11:58:08;98863.53;;;10.71;70.57
68994;BME280;56054;50.968;5.816;2022-11-23T12:09:17;98858.75;;;10.84;69.33
68994;BME280;56054;50.968;5.816;2022-11-23T12:12:33;98847.25;;;10.76;68.80
68994;BME280;56054;50.968;5.816;2022-11-23T12:15:45;98853.53;;;10.84;69.52
68994;BME280;56054;50.968;5.816;2022-11-23T12:26:51;98832.69;;;10.81;69.15
68994;BME280;56054;50.968;5.816;2022-11-23T12:30:42;98834.75;;;10.65;69.65
68994;BME280;56054;50.968;5.816;2022-11-23T12:34:27;98828.25;;;10.51;70.14
68994;BME280;56054;50.968;5.816;2022-11-23T12:37:55;98831.50;;;10.44;70.25
68994;BME280;56054;50.968;5.816;2022-11-23T12:41:34;98824.59;;;10.46;70.77
68994;BME280;56054;50.968;5.816;2022-11-23T12:51:37;98812.56;;;10.48;71.57
68994;BME280;56054;50.968;5.816;2022-11-23T12:55:12;98825.22;;;10.37;71.73
68994;BME280;56054;50.968;5.816;2022-11-23T12:58:28;98829.38;;;10.32;71.17
68994;BME280;56054;50.968;5.816;2022-11-23T13:02:12;98827.81;;;10.37;71.90
68994;BME280;56054;50.968;5.816;2022-11-23T13:09:15;98819.94;;;10.36;72.59
68994;BME280;56054;50.968;5.816;2022-11-23T13:16:06;98818.09;;;10.32;72.25
68994;BME280;56054;50.968;5.816;2022-11-23T13:22:41;98827.66;;;10.33;72.73
68994;BME280;56054;50.968;5.816;2022-11-23T13:29:53;98820.38;;;10.24;73.84
68994;BME280;56054;50.968;5.816;2022-11-23T13:37:02;98810.94;;;10.26;73.41
68994;BME280;56054;50.968;5.816;2022-11-23T13:40:23;98809.31;;;10.28;73.39
68994;BME280;56054;50.968;5.816;2022-11-23T13:43:40;98801.00;;;10.38;73.01
68994;BME280;56054;50.968;5.816;2022-11-23T13:47:06;98816.56;;;10.38;72.38
68994;BME280;56054;50.968;5.816;2022-11-23T13:50:31;98826.16;;;10.41;72.95
68994;BME280;56054;50.968;5.816;2022-11-23T13:53:41;98821.91;;;10.43;71.85
68994;BME280;56054;50.968;5.816;2022-11-23T13:57:09;98828.78;;;10.41;71.62
68994;BME280;56054;50.968;5.816;2022-11-23T14:03:53;98845.75;;;10.31;72.39
68994;BME280;56054;50.968;5.816;2022-11-23T14:10:20;98854.28;;;10.03;77.86
68994;BME280;56054;50.968;5.816;2022-11-23T14:13:32;98864.34;;;9.94;79.73
68994;BME280;56054;50.968;5.816;2022-11-23T14:23:30;98882.88;;;9.56;84.71
68994;BME280;56054;50.968;5.816;2022-11-23T14:36:59;98907.25;;;9.16;92.69
68994;BME280;56054;50.968;5.816;2022-11-23T14:43:27;98930.16;;;9.06;94.77
68994;BME280;56054;50.968;5.816;2022-11-23T14:46:34;98944.25;;;8.91;95.14
68994;BME280;56054;50.968;5.816;2022-11-23T14:49:50;98943.56;;;8.95;96.59
68994;BME280;56054;50.968;5.816;2022-11-23T14:52:57;98930.41;;;8.91;96.54
68994;BME280;56054;50.968;5.816;2022-11-23T14:56:14;98942.78;;;8.77;97.57
68994;BME280;56054;50.968;5.816;2022-11-23T14:59:28;98938.72;;;8.63;99.38
68994;BME280;56054;50.968;5.816;2022-11-23T15:02:42;98954.16;;;8.60;100.00
68994;BME280;56054;50.968;5.816;2022-11-23T15:05:56;98953.00;;;8.53;100.00
68994;BME280;56054;50.968;5.816;2022-11-23T15:12:46;98978.75;;;8.50;100.00
68994;BME280;56054;50.968;5.816;2022-11-23T15:15:57;98979.78;;;8.34;100.00
68994;BME280;56054;50.968;5.816;2022-11-23T15:19:28;99004.81;;;8.35;100.00
68994;BME280;56054;50.968;5.816;2022-11-23T15:22:46;99000.47;;;8.34;100.00
68994;BME280;56054;50.968;5.816;2022-11-23T15:25:56;99019.50;;;8.36;100.00
68994;BME280;56054;50.968;5.816;2022-11-23T15:29:37;99020.06;;;8.29;100.00
68994;BME280;56054;50.968;5.816;2022-11-23T15:32:56;99024.44;;;8.30;100.00
68994;BME280;56054;50.968;5.816;2022-11-23T15:36:04;99019.47;;;8.34;100.00
68994;BME280;56054;50.968;5.816;2022-11-23T15:39:17;99027.91;;;8.30;100.00
68994;BME280;56054;50.968;5.816;2022-11-23T15:46:17;99023.19;;;8.22;100.00
68994;BME280;56054;50.968;5.816;2022-11-23T15:49:44;99032.81;;;8.24;100.00
68994;BME280;56054;50.968;5.816;2022-11-23T15:57:30;99045.75;;;8.24;100.00
68994;BME280;56054;50.968;5.816;2022-11-23T16:00:38;99046.56;;;8.23;100.00
68994;BME280;56054;50.968;5.816;2022-11-23T16:03:53;99048.66;;;8.12;100.00
68994;BME280;56054;50.968;5.816;2022-11-23T16:07:26;99052.13;;;8.13;100.00
68994;BME280;56054;50.968;5.816;2022-11-23T16:10:52;99055.34;;;8.07;100.00
68994;BME280;56054;50.968;5.816;2022-11-23T16:14:26;99047.41;;;8.04;100.00
68994;BME280;56054;50.968;5.816;2022-11-23T16:17:36;99047.63;;;8.09;100.00
68994;BME280;56054;50.968;5.816;2022-11-23T16:20:52;99063.75;;;8.03;100.00
68994;BME280;56054;50.968;5.816;2022-11-23T16:24:00;99060.00;;;7.97;100.00
68994;BME280;56054;50.968;5.816;2022-11-23T16:27:20;99061.84;;;7.99;100.00
68994;BME280;56054;50.968;5.816;2022-11-23T16:30:38;99073.75;;;7.96;100.00
68994;BME280;56054;50.968;5.816;2022-11-23T16:34:18;99079.13;;;8.00;100.00
68994;BME280;56054;50.968;5.816;2022-11-23T16:37:30;99089.19;;;7.94;100.00
68994;BME280;56054;50.968;5.816;2022-11-23T16:40:52;99089.03;;;7.91;100.00
68994;BME280;56054;50.968;5.816;2022-11-23T16:43:59;99085.41;;;7.87;100.00
68994;BME280;56054;50.968;5.816;2022-11-23T16:47:27;99087.25;;;7.90;100.00
68994;BME280;56054;50.968;5.816;2022-11-23T16:50:35;99099.25;;;7.88;100.00
68994;BME280;56054;50.968;5.816;2022-11-23T16:53:46;99103.28;;;8.38;100.00
68994;BME280;56054;50.968;5.816;2022-11-23T16:56:53;99109.06;;;7.95;100.00
68994;BME280;56054;50.968;5.816;2022-11-23T17:00:02;99111.22;;;7.86;100.00
68994;BME280;56054;50.968;5.816;2022-11-23T17:03:20;99110.38;;;7.87;100.00
68994;BME280;56054;50.968;5.816;2022-11-23T17:06:31;99118.00;;;7.84;100.00
68994;BME280;56054;50.968;5.816;2022-11-23T17:09:41;99118.88;;;7.84;100.00
68994;BME280;56054;50.968;5.816;2022-11-23T17:12:51;99128.50;;;7.87;100.00
68994;BME280;56054;50.968;5.816;2022-11-23T17:16:35;99133.66;;;7.87;100.00
68994;BME280;56054;50.968;5.816;2022-11-23T17:19:42;99139.94;;;7.92;100.00
68994;BME280;56054;50.968;5.816;2022-11-23T17:22:55;99152.72;;;7.89;100.00
68994;BME280;56054;50.968;5.816;2022-11-23T17:26:03;99152.00;;;7.91;100.00
68994;BME280;56054;50.968;5.816;2022-11-23T17:29:39;99161.44;;;7.91;100.00
68994;BME280;56054;50.968;5.816;2022-11-23T17:32:47;99168.25;;;7.89;100.00
68994;BME280;56054;50.968;5.816;2022-11-23T17:36:00;99172.22;;;7.82;100.00
68994;BME280;56054;50.968;5.816;2022-11-23T17:39:11;99172.97;;;7.80;100.00
68994;BME280;56054;50.968;5.816;2022-11-23T17:42:21;99180.66;;;7.78;100.00
68994;BME280;56054;50.968;5.816;2022-11-23T17:45:28;99190.53;;;7.69;100.00
68994;BME280;56054;50.968;5.816;2022-11-23T17:48:54;99188.19;;;7.74;100.00
68994;BME280;56054;50.968;5.816;2022-11-23T17:52:02;99189.66;;;7.68;100.00
68994;BME280;56054;50.968;5.816;2022-11-23T17:55:10;99194.75;;;7.67;100.00
68994;BME280;56054;50.968;5.816;2022-11-23T17:58:18;99202.13;;;7.59;100.00
68994;BME280;56054;50.968;5.816;2022-11-23T18:01:25;99211.50;;;7.57;100.00
68994;BME280;56054;50.968;5.816;2022-11-23T18:04:35;99211.63;;;7.60;100.00
68994;BME280;56054;50.968;5.816;2022-11-23T18:07:42;99214.00;;;7.56;100.00
68994;BME280;56054;50.968;5.816;2022-11-23T18:10:49;99226.91;;;7.56;100.00
68994;BME280;56054;50.968;5.816;2022-11-23T18:14:03;99228.47;;;7.52;100.00
68994;BME280;56054;50.968;5.816;2022-11-23T18:17:10;99230.16;;;7.52;100.00
68994;BME280;56054;50.968;5.816;2022-11-23T18:20:17;99243.97;;;7.52;100.00
68994;BME280;56054;50.968;5.816;2022-11-23T18:23:25;99240.31;;;7.48;100.00
68994;BME280;56054;50.968;5.816;2022-11-23T18:26:35;99249.13;;;7.52;100.00
68994;BME280;56054;50.968;5.816;2022-11-23T18:29:42;99253.72;;;7.58;100.00
68994;BME280;56054;50.968;5.816;2022-11-23T18:32:49;99258.50;;;7.50;100.00
68994;BME280;56054;50.968;5.816;2022-11-23T18:36:00;99264.94;;;7.58;100.00
68994;BME280;56054;50.968;5.816;2022-11-23T18:39:10;99270.13;;;7.58;100.00
68994;BME280;56054;50.968;5.816;2022-11-23T18:42:17;99277.06;;;7.59;100.00
68994;BME280;56054;50.968;5.816;2022-11-23T18:45:24;99280.78;;;7.64;100.00
68994;BME280;56054;50.968;5.816;2022-11-23T18:48:31;99288.31;;;7.60;100.00
68994;BME280;56054;50.968;5.816;2022-11-23T18:51:38;99288.44;;;7.63;100.00
68994;BME280;56054;50.968;5.816;2022-11-23T18:54:45;99294.53;;;7.63;100.00
68994;BME280;56054;50.968;5.816;2022-11-23T18:57:53;99297.13;;;7.63;100.00
68994;BME280;56054;50.968;5.816;2022-11-23T19:04:13;99300.50;;;7.62;100.00
68994;BME280;56054;50.968;5.816;2022-11-23T19:07:20;99309.94;;;7.62;100.00
68994;BME280;56054;50.968;5.816;2022-11-23T19:10:27;99308.97;;;7.60;100.00